sensor_id;sensor_type;location;lat;lon;timestamp;P1;durP1;ratioP1;P2;durP2;ratioP2
77866;SDS011;67271;59.120;37.970;2023-03-14T00:03:52;0.82;;;0.82;;
77866;SDS011;67271;59.120;37.970;2023-03-14T00:06:18;1.48;;;1.20;;
77866;SDS011;67271;59.120;37.970;2023-03-14T00:08:44;0.80;;;0.63;;
77866;SDS011;67271;59.120;37.970;2023-03-14T00:11:12;0.60;;;0.50;;
77866;SDS011;67271;59.120;37.970;2023-03-14T00:13:40;1.88;;;0.90;;
77866;SDS011;67271;59.120;37.970;2023-03-14T00:16:08;1.35;;;1.10;;
77866;SDS011;67271;59.120;37.970;2023-03-14T00:18:36;1.75;;;1.08;;
77866;SDS011;67271;59.120;37.970;2023-03-14T00:21:02;1.05;;;0.80;;
77866;SDS011;67271;59.120;37.970;2023-03-14T00:23:30;0.93;;;0.88;;
77866;SDS011;67271;59.120;37.970;2023-03-14T00:26:01;8.30;;;1.60;;
77866;SDS011;67271;59.120;37.970;2023-03-14T00:28:31;1.48;;;0.52;;
77866;SDS011;67271;59.120;37.970;2023-03-14T00:30:57;0.88;;;0.88;;
77866;SDS011;67271;59.120;37.970;2023-03-14T00:33:23;1.10;;;0.63;;
77866;SDS011;67271;59.120;37.970;2023-03-14T00:36:00;0.90;;;0.80;;
77866;SDS011;67271;59.120;37.970;2023-03-14T00:38:29;1.10;;;0.88;;
77866;SDS011;67271;59.120;37.970;2023-03-14T00:40:56;0.55;;;0.55;;
77866;SDS011;67271;59.120;37.970;2023-03-14T00:43:22;0.40;;;0.40;;
77866;SDS011;67271;59.120;37.970;2023-03-14T00:45:49;1.65;;;1.40;;
77866;SDS011;67271;59.120;37.970;2023-03-14T00:48:17;0.70;;;0.70;;
77866;SDS011;67271;59.120;37.970;2023-03-14T00:50:44;2.88;;;0.52;;
77866;SDS011;67271;59.120;37.970;2023-03-14T00:53:10;1.15;;;1.05;;
77866;SDS011;67271;59.120;37.970;2023-03-14T00:55:37;3.08;;;1.30;;
77866;SDS011;67271;59.120;37.970;2023-03-14T00:58:04;1.20;;;0.77;;
77866;SDS011;67271;59.120;37.970;2023-03-14T01:00:30;0.75;;;0.75;;
77866;SDS011;67271;59.120;37.970;2023-03-14T01:02:57;0.55;;;0.55;;
77866;SDS011;67271;59.120;37.970;2023-03-14T01:05:23;1.40;;;0.55;;
77866;SDS011;67271;59.120;37.970;2023-03-14T01:07:50;2.22;;;0.65;;
77866;SDS011;67271;59.120;37.970;2023-03-14T01:10:16;1.27;;;1.00;;
77866;SDS011;67271;59.120;37.970;2023-03-14T01:12:42;1.08;;;0.85;;
77866;SDS011;67271;59.120;37.970;2023-03-14T01:15:07;2.08;;;1.45;;
77866;SDS011;67271;59.120;37.970;2023-03-14T01:17:34;0.70;;;0.70;;
77866;SDS011;67271;59.120;37.970;2023-03-14T01:20:00;0.15;;;0.15;;
77866;SDS011;67271;59.120;37.970;2023-03-14T01:22:27;1.35;;;0.70;;
77866;SDS011;67271;59.120;37.970;2023-03-14T01:24:53;0.38;;;0.32;;
77866;SDS011;67271;59.120;37.970;2023-03-14T01:27:19;0.65;;;0.65;;
77866;SDS011;67271;59.120;37.970;2023-03-14T01:29:45;0.52;;;0.50;;
77866;SDS011;67271;59.120;37.970;2023-03-14T01:32:13;1.23;;;0.93;;
77866;SDS011;67271;59.120;37.970;2023-03-14T01:34:39;0.90;;;0.70;;
77866;SDS011;67271;59.120;37.970;2023-03-14T01:37:05;4.00;;;0.98;;
77866;SDS011;67271;59.120;37.970;2023-03-14T01:39:33;0.38;;;0.38;;
77866;SDS011;67271;59.120;37.970;2023-03-14T01:42:00;0.73;;;0.73;;
77866;SDS011;67271;59.120;37.970;2023-03-14T01:44:26;0.60;;;0.60;;
77866;SDS011;67271;59.120;37.970;2023-03-14T01:46:52;0.47;;;0.45;;
77866;SDS011;67271;59.120;37.970;2023-03-14T01:49:26;1.00;;;0.60;;
77866;SDS011;67271;59.120;37.970;2023-03-14T01:52:19;2.38;;;1.23;;
77866;SDS011;67271;59.120;37.970;2023-03-14T01:54:50;0.73;;;0.73;;
77866;SDS011;67271;59.120;37.970;2023-03-14T01:57:22;1.77;;;1.10;;
77866;SDS011;67271;59.120;37.970;2023-03-14T01:59:59;1.90;;;1.27;;
77866;SDS011;67271;59.120;37.970;2023-03-14T02:02:39;0.70;;;0.70;;
77866;SDS011;67271;59.120;37.970;2023-03-14T02:05:09;1.50;;;0.93;;
77866;SDS011;67271;59.120;37.970;2023-03-14T02:10:54;0.57;;;0.57;;
77866;SDS011;67271;59.120;37.970;2023-03-14T02:13:28;0.57;;;0.55;;
77866;SDS011;67271;59.120;37.970;2023-03-14T02:16:22;0.63;;;0.63;;
77866;SDS011;67271;59.120;37.970;2023-03-14T02:19:06;0.30;;;0.05;;
77866;SDS011;67271;59.120;37.970;2023-03-14T02:22:02;1.05;;;0.55;;
77866;SDS011;67271;59.120;37.970;2023-03-14T02:25:00;0.38;;;0.38;;
77866;SDS011;67271;59.120;37.970;2023-03-14T02:27:34;0.35;;;0.35;;
77866;SDS011;67271;59.120;37.970;2023-03-14T02:30:03;0.60;;;0.60;;
77866;SDS011;67271;59.120;37.970;2023-03-14T02:32:33;2.08;;;1.88;;
77866;SDS011;67271;59.120;37.970;2023-03-14T02:35:03;1.55;;;1.35;;
77866;SDS011;67271;59.120;37.970;2023-03-14T02:37:38;1.17;;;0.80;;
77866;SDS011;67271;59.120;37.970;2023-03-14T02:40:08;2.63;;;0.90;;
77866;SDS011;67271;59.120;37.970;2023-03-14T02:42:36;1.13;;;0.95;;
77866;SDS011;67271;59.120;37.970;2023-03-14T02:47:39;3.47;;;1.27;;
77866;SDS011;67271;59.120;37.970;2023-03-14T02:50:10;1.90;;;1.17;;
77866;SDS011;67271;59.120;37.970;2023-03-14T02:52:40;1.98;;;1.35;;
77866;SDS011;67271;59.120;37.970;2023-03-14T02:55:06;2.10;;;0.73;;
77866;SDS011;67271;59.120;37.970;2023-03-14T02:57:34;1.55;;;1.25;;
77866;SDS011;67271;59.120;37.970;2023-03-14T03:00:00;1.30;;;0.88;;
77866;SDS011;67271;59.120;37.970;2023-03-14T03:02:32;1.90;;;1.35;;
77866;SDS011;67271;59.120;37.970;2023-03-14T03:04:58;1.83;;;1.40;;
77866;SDS011;67271;59.120;37.970;2023-03-14T03:07:24;1.15;;;1.05;;
77866;SDS011;67271;59.120;37.970;2023-03-14T03:09:51;2.03;;;0.95;;
77866;SDS011;67271;59.120;37.970;2023-03-14T03:12:17;2.38;;;1.27;;
77866;SDS011;67271;59.120;37.970;2023-03-14T03:14:44;4.82;;;1.58;;
77866;SDS011;67271;59.120;37.970;2023-03-14T03:17:10;3.17;;;1.15;;
77866;SDS011;67271;59.120;37.970;2023-03-14T03:19:37;0.90;;;0.88;;
77866;SDS011;67271;59.120;37.970;2023-03-14T03:22:03;0.77;;;0.60;;
77866;SDS011;67271;59.120;37.970;2023-03-14T03:24:29;4.38;;;1.02;;
77866;SDS011;67271;59.120;37.970;2023-03-14T03:26:55;3.33;;;1.00;;
77866;SDS011;67271;59.120;37.970;2023-03-14T03:29:21;2.92;;;1.38;;
77866;SDS011;67271;59.120;37.970;2023-03-14T03:31:47;1.15;;;0.63;;
77866;SDS011;67271;59.120;37.970;2023-03-14T03:34:13;2.22;;;1.40;;
77866;SDS011;67271;59.120;37.970;2023-03-14T03:36:40;1.35;;;1.08;;
77866;SDS011;67271;59.120;37.970;2023-03-14T03:39:07;1.52;;;0.82;;
77866;SDS011;67271;59.120;37.970;2023-03-14T03:41:33;2.35;;;0.95;;
77866;SDS011;67271;59.120;37.970;2023-03-14T03:43:59;2.42;;;1.25;;
77866;SDS011;67271;59.120;37.970;2023-03-14T03:46:25;6.78;;;1.40;;
77866;SDS011;67271;59.120;37.970;2023-03-14T03:48:55;1.30;;;1.20;;
77866;SDS011;67271;59.120;37.970;2023-03-14T03:51:22;2.95;;;1.27;;
77866;SDS011;67271;59.120;37.970;2023-03-14T03:53:48;4.13;;;1.38;;
77866;SDS011;67271;59.120;37.970;2023-03-14T03:58:44;0.85;;;0.75;;
77866;SDS011;67271;59.120;37.970;2023-03-14T04:01:10;1.15;;;1.05;;
77866;SDS011;67271;59.120;37.970;2023-03-14T04:03:36;2.92;;;1.10;;
77866;SDS011;67271;59.120;37.970;2023-03-14T04:06:09;1.27;;;0.98;;
77866;SDS011;67271;59.120;37.970;2023-03-14T04:08:38;1.70;;;0.80;;
77866;SDS011;67271;59.120;37.970;2023-03-14T04:11:09;3.25;;;1.30;;
77866;SDS011;67271;59.120;37.970;2023-03-14T04:13:55;1.40;;;1.20;;
77866;SDS011;67271;59.120;37.970;2023-03-14T04:16:22;2.72;;;0.82;;
77866;SDS011;67271;59.120;37.970;2023-03-14T04:18:51;1.60;;;0.82;;
77866;SDS011;67271;59.120;37.970;2023-03-14T04:21:20;0.70;;;0.70;;
77866;SDS011;67271;59.120;37.970;2023-03-14T04:23:49;2.22;;;1.35;;
77866;SDS011;67271;59.120;37.970;2023-03-14T04:26:16;4.07;;;1.80;;
77866;SDS011;67271;59.120;37.970;2023-03-14T04:28:42;3.22;;;1.10;;
77866;SDS011;67271;59.120;37.970;2023-03-14T04:31:13;1.02;;;0.93;;
77866;SDS011;67271;59.120;37.970;2023-03-14T04:33:41;1.77;;;0.88;;
77866;SDS011;67271;59.120;37.970;2023-03-14T04:36:08;4.63;;;1.10;;
77866;SDS011;67271;59.120;37.970;2023-03-14T04:38:34;1.52;;;1.42;;
77866;SDS011;67271;59.120;37.970;2023-03-14T04:41:01;3.00;;;2.03;;
77866;SDS011;67271;59.120;37.970;2023-03-14T04:43:31;2.22;;;1.50;;
77866;SDS011;67271;59.120;37.970;2023-03-14T04:46:02;2.22;;;1.08;;
77866;SDS011;67271;59.120;37.970;2023-03-14T04:48:29;4.28;;;2.28;;
77866;SDS011;67271;59.120;37.970;2023-03-14T04:50:55;61.13;;;7.13;;
77866;SDS011;67271;59.120;37.970;2023-03-14T04:53:21;12.93;;;2.60;;
77866;SDS011;67271;59.120;37.970;2023-03-14T04:55:50;3.15;;;2.70;;
77866;SDS011;67271;59.120;37.970;2023-03-14T04:58:17;5.43;;;2.10;;
77866;SDS011;67271;59.120;37.970;2023-03-14T05:00:45;6.72;;;2.13;;
77866;SDS011;67271;59.120;37.970;2023-03-14T05:03:29;1.23;;;0.95;;
77866;SDS011;67271;59.120;37.970;2023-03-14T05:06:14;9.93;;;2.05;;
77866;SDS011;67271;59.120;37.970;2023-03-14T05:08:51;2.83;;;1.98;;
77866;SDS011;67271;59.120;37.970;2023-03-14T05:11:35;2.70;;;1.63;;
77866;SDS011;67271;59.120;37.970;2023-03-14T05:14:13;4.28;;;2.17;;
77866;SDS011;67271;59.120;37.970;2023-03-14T05:16:53;10.50;;;1.77;;
77866;SDS011;67271;59.120;37.970;2023-03-14T05:19:43;5.30;;;2.95;;
77866;SDS011;67271;59.120;37.970;2023-03-14T05:22:35;4.97;;;2.00;;
77866;SDS011;67271;59.120;37.970;2023-03-14T05:25:20;8.65;;;3.67;;
77866;SDS011;67271;59.120;37.970;2023-03-14T05:28:06;4.55;;;2.65;;
77866;SDS011;67271;59.120;37.970;2023-03-14T05:30:42;5.18;;;3.05;;
77866;SDS011;67271;59.120;37.970;2023-03-14T05:33:26;5.20;;;2.30;;
77866;SDS011;67271;59.120;37.970;2023-03-14T05:36:10;6.80;;;2.35;;
77866;SDS011;67271;59.120;37.970;2023-03-14T05:39:00;2.63;;;1.55;;
77866;SDS011;67271;59.120;37.970;2023-03-14T05:41:44;6.63;;;3.35;;
77866;SDS011;67271;59.120;37.970;2023-03-14T05:44:24;3.53;;;2.17;;
77866;SDS011;67271;59.120;37.970;2023-03-14T05:47:07;10.38;;;3.75;;
77866;SDS011;67271;59.120;37.970;2023-03-14T05:49:44;7.68;;;4.25;;
77866;SDS011;67271;59.120;37.970;2023-03-14T05:52:33;8.27;;;3.92;;
77866;SDS011;67271;59.120;37.970;2023-03-14T05:55:07;9.65;;;4.63;;
77866;SDS011;67271;59.120;37.970;2023-03-14T05:58:02;6.63;;;3.08;;
77866;SDS011;67271;59.120;37.970;2023-03-14T06:00:44;7.28;;;3.78;;
77866;SDS011;67271;59.120;37.970;2023-03-14T06:03:20;7.85;;;4.05;;
77866;SDS011;67271;59.120;37.970;2023-03-14T06:05:49;8.70;;;4.57;;
77866;SDS011;67271;59.120;37.970;2023-03-14T06:08:17;7.90;;;4.53;;
77866;SDS011;67271;59.120;37.970;2023-03-14T06:10:45;6.15;;;3.30;;
77866;SDS011;67271;59.120;37.970;2023-03-14T06:13:11;9.25;;;4.80;;
77866;SDS011;67271;59.120;37.970;2023-03-14T06:15:37;8.20;;;3.85;;
77866;SDS011;67271;59.120;37.970;2023-03-14T06:18:03;4.65;;;2.35;;
77866;SDS011;67271;59.120;37.970;2023-03-14T06:20:29;5.68;;;3.33;;
77866;SDS011;67271;59.120;37.970;2023-03-14T06:22:56;18.75;;;5.90;;
77866;SDS011;67271;59.120;37.970;2023-03-14T06:25:22;7.28;;;3.72;;
77866;SDS011;67271;59.120;37.970;2023-03-14T06:27:47;21.58;;;5.40;;
77866;SDS011;67271;59.120;37.970;2023-03-14T06:30:15;6.68;;;2.95;;
77866;SDS011;67271;59.120;37.970;2023-03-14T06:32:41;5.93;;;3.55;;
77866;SDS011;67271;59.120;37.970;2023-03-14T06:35:10;8.27;;;3.58;;
77866;SDS011;67271;59.120;37.970;2023-03-14T06:37:39;7.70;;;4.20;;
77866;SDS011;67271;59.120;37.970;2023-03-14T06:40:06;11.68;;;4.60;;
77866;SDS011;67271;59.120;37.970;2023-03-14T06:42:58;11.45;;;4.97;;
77866;SDS011;67271;59.120;37.970;2023-03-14T06:45:26;8.88;;;4.50;;
77866;SDS011;67271;59.120;37.970;2023-03-14T06:47:53;9.60;;;4.47;;
77866;SDS011;67271;59.120;37.970;2023-03-14T06:53:42;8.00;;;4.43;;
77866;SDS011;67271;59.120;37.970;2023-03-14T06:56:09;9.65;;;4.88;;
77866;SDS011;67271;59.120;37.970;2023-03-14T06:58:35;10.05;;;5.78;;
77866;SDS011;67271;59.120;37.970;2023-03-14T07:01:04;5.70;;;3.33;;
77866;SDS011;67271;59.120;37.970;2023-03-14T07:03:37;2.58;;;2.08;;
77866;SDS011;67271;59.120;37.970;2023-03-14T07:06:04;6.40;;;4.50;;
77866;SDS011;67271;59.120;37.970;2023-03-14T07:08:32;11.18;;;4.28;;
77866;SDS011;67271;59.120;37.970;2023-03-14T07:10:59;4.10;;;2.50;;
77866;SDS011;67271;59.120;37.970;2023-03-14T07:13:28;5.13;;;2.20;;
77866;SDS011;67271;59.120;37.970;2023-03-14T07:15:59;8.02;;;4.47;;
77866;SDS011;67271;59.120;37.970;2023-03-14T07:18:29;11.82;;;5.57;;
77866;SDS011;67271;59.120;37.970;2023-03-14T07:20:55;5.88;;;3.35;;
77866;SDS011;67271;59.120;37.970;2023-03-14T07:23:21;4.40;;;3.92;;
77866;SDS011;67271;59.120;37.970;2023-03-14T07:25:50;1.95;;;1.85;;
77866;SDS011;67271;59.120;37.970;2023-03-14T07:28:18;5.35;;;2.17;;
77866;SDS011;67271;59.120;37.970;2023-03-14T07:30:47;4.03;;;3.05;;
77866;SDS011;67271;59.120;37.970;2023-03-14T07:33:21;9.23;;;4.47;;
77866;SDS011;67271;59.120;37.970;2023-03-14T07:35:47;2.58;;;2.38;;
77866;SDS011;67271;59.120;37.970;2023-03-14T07:38:14;8.55;;;4.55;;
77866;SDS011;67271;59.120;37.970;2023-03-14T07:40:59;6.30;;;2.42;;
77866;SDS011;67271;59.120;37.970;2023-03-14T07:43:27;5.00;;;3.83;;
77866;SDS011;67271;59.120;37.970;2023-03-14T07:45:58;2.40;;;2.03;;
77866;SDS011;67271;59.120;37.970;2023-03-14T07:48:24;5.65;;;2.50;;
77866;SDS011;67271;59.120;37.970;2023-03-14T07:50:52;5.00;;;4.32;;
77866;SDS011;67271;59.120;37.970;2023-03-14T07:53:19;10.88;;;5.28;;
77866;SDS011;67271;59.120;37.970;2023-03-14T07:55:46;15.10;;;6.30;;
77866;SDS011;67271;59.120;37.970;2023-03-14T07:58:13;4.65;;;3.50;;
77866;SDS011;67271;59.120;37.970;2023-03-14T08:00:39;4.20;;;2.75;;
77866;SDS011;67271;59.120;37.970;2023-03-14T08:03:05;31.65;;;5.10;;
77866;SDS011;67271;59.120;37.970;2023-03-14T08:05:34;6.40;;;2.35;;
77866;SDS011;67271;59.120;37.970;2023-03-14T08:08:01;4.28;;;2.67;;
77866;SDS011;67271;59.120;37.970;2023-03-14T08:10:27;5.47;;;3.78;;
77866;SDS011;67271;59.120;37.970;2023-03-14T08:12:54;5.70;;;3.03;;
77866;SDS011;67271;59.120;37.970;2023-03-14T08:15:22;2.53;;;2.33;;
77866;SDS011;67271;59.120;37.970;2023-03-14T08:17:49;3.97;;;3.00;;
77866;SDS011;67271;59.120;37.970;2023-03-14T08:20:17;6.03;;;3.50;;
77866;SDS011;67271;59.120;37.970;2023-03-14T08:22:43;6.93;;;4.70;;
77866;SDS011;67271;59.120;37.970;2023-03-14T08:25:10;7.65;;;4.57;;
77866;SDS011;67271;59.120;37.970;2023-03-14T08:27:36;4.32;;;2.67;;
77866;SDS011;67271;59.120;37.970;2023-03-14T08:30:10;1.77;;;1.50;;
77866;SDS011;67271;59.120;37.970;2023-03-14T08:32:38;3.05;;;2.70;;
77866;SDS011;67271;59.120;37.970;2023-03-14T08:35:04;11.35;;;4.80;;
77866;SDS011;67271;59.120;37.970;2023-03-14T08:37:31;7.07;;;3.70;;
77866;SDS011;67271;59.120;37.970;2023-03-14T08:39:58;21.63;;;2.97;;
77866;SDS011;67271;59.120;37.970;2023-03-14T08:42:24;2.13;;;0.98;;
77866;SDS011;67271;59.120;37.970;2023-03-14T08:44:51;10.38;;;4.78;;
77866;SDS011;67271;59.120;37.970;2023-03-14T08:47:18;15.55;;;5.20;;
77866;SDS011;67271;59.120;37.970;2023-03-14T08:49:44;3.33;;;2.90;;
77866;SDS011;67271;59.120;37.970;2023-03-14T08:52:10;2.42;;;1.88;;
77866;SDS011;67271;59.120;37.970;2023-03-14T08:54:36;7.35;;;4.65;;
77866;SDS011;67271;59.120;37.970;2023-03-14T08:57:02;8.73;;;4.57;;
77866;SDS011;67271;59.120;37.970;2023-03-14T08:59:27;3.47;;;3.17;;
77866;SDS011;67271;59.120;37.970;2023-03-14T09:01:53;8.90;;;4.47;;
77866;SDS011;67271;59.120;37.970;2023-03-14T09:04:20;8.18;;;3.72;;
77866;SDS011;67271;59.120;37.970;2023-03-14T09:06:46;11.00;;;5.20;;
77866;SDS011;67271;59.120;37.970;2023-03-14T09:09:11;8.93;;;3.58;;
77866;SDS011;67271;59.120;37.970;2023-03-14T09:11:39;9.18;;;5.47;;
77866;SDS011;67271;59.120;37.970;2023-03-14T09:14:05;5.53;;;3.78;;
77866;SDS011;67271;59.120;37.970;2023-03-14T09:16:32;6.80;;;3.70;;
77866;SDS011;67271;59.120;37.970;2023-03-14T09:18:58;14.15;;;6.57;;
77866;SDS011;67271;59.120;37.970;2023-03-14T09:21:27;11.93;;;6.40;;
77866;SDS011;67271;59.120;37.970;2023-03-14T09:23:53;8.65;;;3.78;;
77866;SDS011;67271;59.120;37.970;2023-03-14T09:26:19;12.40;;;5.13;;
77866;SDS011;67271;59.120;37.970;2023-03-14T09:28:45;11.60;;;5.50;;
77866;SDS011;67271;59.120;37.970;2023-03-14T09:31:11;13.25;;;6.18;;
77866;SDS011;67271;59.120;37.970;2023-03-14T09:33:37;20.08;;;7.43;;
77866;SDS011;67271;59.120;37.970;2023-03-14T09:36:04;10.63;;;5.03;;
77866;SDS011;67271;59.120;37.970;2023-03-14T09:38:31;11.82;;;5.50;;
77866;SDS011;67271;59.120;37.970;2023-03-14T09:40:58;9.65;;;5.88;;
77866;SDS011;67271;59.120;37.970;2023-03-14T09:43:26;19.10;;;8.70;;
77866;SDS011;67271;59.120;37.970;2023-03-14T09:45:57;23.70;;;9.73;;
77866;SDS011;67271;59.120;37.970;2023-03-14T09:48:27;7.28;;;3.13;;
77866;SDS011;67271;59.120;37.970;2023-03-14T09:50:56;17.23;;;8.10;;
77866;SDS011;67271;59.120;37.970;2023-03-14T09:53:38;14.88;;;7.47;;
77866;SDS011;67271;59.120;37.970;2023-03-14T09:56:11;10.50;;;5.15;;
77866;SDS011;67271;59.120;37.970;2023-03-14T09:58:55;23.00;;;9.70;;
77866;SDS011;67271;59.120;37.970;2023-03-14T10:01:28;17.42;;;7.63;;
77866;SDS011;67271;59.120;37.970;2023-03-14T10:03:56;16.55;;;9.40;;
77866;SDS011;67271;59.120;37.970;2023-03-14T10:06:26;25.75;;;12.00;;
77866;SDS011;67271;59.120;37.970;2023-03-14T10:08:54;15.98;;;8.48;;
77866;SDS011;67271;59.120;37.970;2023-03-14T10:11:22;12.93;;;6.50;;
77866;SDS011;67271;59.120;37.970;2023-03-14T10:14:03;16.70;;;7.50;;
77866;SDS011;67271;59.120;37.970;2023-03-14T10:16:34;25.35;;;10.45;;
77866;SDS011;67271;59.120;37.970;2023-03-14T10:19:07;21.60;;;9.82;;
77866;SDS011;67271;59.120;37.970;2023-03-14T10:21:52;23.20;;;10.80;;
77866;SDS011;67271;59.120;37.970;2023-03-14T10:26:51;17.60;;;8.43;;
77866;SDS011;67271;59.120;37.970;2023-03-14T10:29:19;10.98;;;5.22;;
77866;SDS011;67271;59.120;37.970;2023-03-14T10:34:21;17.60;;;9.65;;
77866;SDS011;67271;59.120;37.970;2023-03-14T10:36:53;21.23;;;8.90;;
77866;SDS011;67271;59.120;37.970;2023-03-14T10:41:54;15.63;;;7.25;;
77866;SDS011;67271;59.120;37.970;2023-03-14T10:44:27;16.35;;;7.72;;
77866;SDS011;67271;59.120;37.970;2023-03-14T10:46:56;19.65;;;7.75;;
77866;SDS011;67271;59.120;37.970;2023-03-14T10:49:29;12.10;;;6.30;;
77866;SDS011;67271;59.120;37.970;2023-03-14T10:52:12;17.23;;;8.95;;
77866;SDS011;67271;59.120;37.970;2023-03-14T10:54:48;27.00;;;11.27;;
77866;SDS011;67271;59.120;37.970;2023-03-14T10:57:26;26.98;;;10.23;;
77866;SDS011;67271;59.120;37.970;2023-03-14T10:59:53;22.70;;;11.82;;
77866;SDS011;67271;59.120;37.970;2023-03-14T11:07:41;19.27;;;9.25;;
77866;SDS011;67271;59.120;37.970;2023-03-14T11:15:18;13.13;;;7.45;;
77866;SDS011;67271;59.120;37.970;2023-03-14T11:22:50;17.88;;;8.70;;
77866;SDS011;67271;59.120;37.970;2023-03-14T11:28:08;21.98;;;10.95;;
77866;SDS011;67271;59.120;37.970;2023-03-14T11:33:55;23.27;;;11.43;;
77866;SDS011;67271;59.120;37.970;2023-03-14T11:36:31;12.77;;;6.35;;
77866;SDS011;67271;59.120;37.970;2023-03-14T11:39:03;23.70;;;10.77;;
77866;SDS011;67271;59.120;37.970;2023-03-14T11:45:58;25.90;;;11.75;;
77866;SDS011;67271;59.120;37.970;2023-03-14T11:50:56;19.13;;;11.07;;
77866;SDS011;67271;59.120;37.970;2023-03-14T11:59:07;14.73;;;8.32;;
77866;SDS011;67271;59.120;37.970;2023-03-14T12:08:16;21.67;;;10.40;;
77866;SDS011;67271;59.120;37.970;2023-03-14T12:10:35;15.05;;;8.77;;
77866;SDS011;67271;59.120;37.970;2023-03-14T12:13:09;20.67;;;11.23;;
77866;SDS011;67271;59.120;37.970;2023-03-14T12:15:40;11.82;;;6.68;;
77866;SDS011;67271;59.120;37.970;2023-03-14T12:18:19;16.52;;;8.18;;
77866;SDS011;67271;59.120;37.970;2023-03-14T12:20:56;15.68;;;8.68;;
77866;SDS011;67271;59.120;37.970;2023-03-14T12:30:17;14.27;;;5.80;;
77866;SDS011;67271;59.120;37.970;2023-03-14T12:35:42;15.48;;;9.93;;
77866;SDS011;67271;59.120;37.970;2023-03-14T12:41:03;14.57;;;8.45;;
77866;SDS011;67271;59.120;37.970;2023-03-14T12:43:31;16.25;;;8.13;;
77866;SDS011;67271;59.120;37.970;2023-03-14T12:48:46;18.35;;;9.43;;
77866;SDS011;67271;59.120;37.970;2023-03-14T13:02:59;13.50;;;7.43;;
77866;SDS011;67271;59.120;37.970;2023-03-14T13:05:11;12.77;;;8.23;;
77866;SDS011;67271;59.120;37.970;2023-03-14T13:10:21;8.60;;;4.50;;
77866;SDS011;67271;59.120;37.970;2023-03-14T13:16:50;11.40;;;6.95;;
77866;SDS011;67271;59.120;37.970;2023-03-14T13:19:26;13.98;;;6.78;;
77866;SDS011;67271;59.120;37.970;2023-03-14T13:22:02;15.50;;;7.55;;
77866;SDS011;67271;59.120;37.970;2023-03-14T13:24:32;11.95;;;5.43;;
77866;SDS011;67271;59.120;37.970;2023-03-14T13:26:59;13.82;;;7.50;;
77866;SDS011;67271;59.120;37.970;2023-03-14T13:29:27;9.60;;;5.25;;
77866;SDS011;67271;59.120;37.970;2023-03-14T13:32:13;16.00;;;7.68;;
77866;SDS011;67271;59.120;37.970;2023-03-14T13:34:44;12.38;;;7.97;;
77866;SDS011;67271;59.120;37.970;2023-03-14T13:37:20;12.52;;;7.15;;
77866;SDS011;67271;59.120;37.970;2023-03-14T13:39:58;14.88;;;8.82;;
77866;SDS011;67271;59.120;37.970;2023-03-14T13:42:25;13.75;;;8.48;;
77866;SDS011;67271;59.120;37.970;2023-03-14T13:44:53;15.82;;;9.38;;
77866;SDS011;67271;59.120;37.970;2023-03-14T13:47:22;13.30;;;8.68;;
77866;SDS011;67271;59.120;37.970;2023-03-14T13:49:49;11.63;;;6.50;;
77866;SDS011;67271;59.120;37.970;2023-03-14T13:54:56;13.35;;;7.72;;
77866;SDS011;67271;59.120;37.970;2023-03-14T13:57:24;15.23;;;8.77;;
77866;SDS011;67271;59.120;37.970;2023-03-14T14:00:16;13.10;;;8.02;;
77866;SDS011;67271;59.120;37.970;2023-03-14T14:02:45;15.63;;;7.30;;
77866;SDS011;67271;59.120;37.970;2023-03-14T14:05:13;11.23;;;7.20;;
77866;SDS011;67271;59.120;37.970;2023-03-14T14:07:40;16.45;;;8.80;;
77866;SDS011;67271;59.120;37.970;2023-03-14T14:10:10;14.23;;;8.90;;
77866;SDS011;67271;59.120;37.970;2023-03-14T14:15:34;14.32;;;8.73;;
77866;SDS011;67271;59.120;37.970;2023-03-14T14:18:07;15.75;;;6.68;;
77866;SDS011;67271;59.120;37.970;2023-03-14T14:23:12;14.45;;;7.88;;
77866;SDS011;67271;59.120;37.970;2023-03-14T14:25:42;18.50;;;9.30;;
77866;SDS011;67271;59.120;37.970;2023-03-14T14:30:43;12.88;;;7.53;;
77866;SDS011;67271;59.120;37.970;2023-03-14T14:33:27;12.35;;;7.75;;
77866;SDS011;67271;59.120;37.970;2023-03-14T14:35:57;13.68;;;7.60;;
77866;SDS011;67271;59.120;37.970;2023-03-14T14:38:25;13.77;;;8.07;;
77866;SDS011;67271;59.120;37.970;2023-03-14T14:40:53;18.58;;;8.70;;
77866;SDS011;67271;59.120;37.970;2023-03-14T14:43:25;8.05;;;5.22;;
77866;SDS011;67271;59.120;37.970;2023-03-14T14:45:53;14.20;;;8.02;;
77866;SDS011;67271;59.120;37.970;2023-03-14T14:48:27;13.10;;;7.78;;
77866;SDS011;67271;59.120;37.970;2023-03-14T14:50:58;10.70;;;5.10;;
77866;SDS011;67271;59.120;37.970;2023-03-14T14:53:28;13.13;;;8.50;;
77866;SDS011;67271;59.120;37.970;2023-03-14T14:56:17;10.10;;;7.07;;
77866;SDS011;67271;59.120;37.970;2023-03-14T14:58:47;16.83;;;8.25;;
77866;SDS011;67271;59.120;37.970;2023-03-14T15:03:52;11.32;;;6.70;;
77866;SDS011;67271;59.120;37.970;2023-03-14T15:06:19;16.05;;;8.75;;
77866;SDS011;67271;59.120;37.970;2023-03-14T15:08:47;15.50;;;8.68;;
77866;SDS011;67271;59.120;37.970;2023-03-14T15:11:32;12.02;;;7.95;;
77866;SDS011;67271;59.120;37.970;2023-03-14T15:13:57;16.90;;;7.68;;
77866;SDS011;67271;59.120;37.970;2023-03-14T15:16:25;11.85;;;7.13;;
77866;SDS011;67271;59.120;37.970;2023-03-14T15:18:57;14.43;;;6.80;;
77866;SDS011;67271;59.120;37.970;2023-03-14T15:21:25;19.58;;;8.85;;
77866;SDS011;67271;59.120;37.970;2023-03-14T15:23:52;12.20;;;7.43;;
77866;SDS011;67271;59.120;37.970;2023-03-14T15:26:19;15.13;;;8.82;;
77866;SDS011;67271;59.120;37.970;2023-03-14T15:28:47;14.20;;;7.80;;
77866;SDS011;67271;59.120;37.970;2023-03-14T15:31:14;14.25;;;7.78;;
77866;SDS011;67271;59.120;37.970;2023-03-14T15:33:42;11.98;;;7.55;;
77866;SDS011;67271;59.120;37.970;2023-03-14T15:36:19;17.35;;;9.82;;
77866;SDS011;67271;59.120;37.970;2023-03-14T15:38:53;15.57;;;8.27;;
77866;SDS011;67271;59.120;37.970;2023-03-14T15:41:21;11.93;;;6.43;;
77866;SDS011;67271;59.120;37.970;2023-03-14T15:43:48;13.75;;;7.82;;
77866;SDS011;67271;59.120;37.970;2023-03-14T15:46:15;13.95;;;7.82;;
77866;SDS011;67271;59.120;37.970;2023-03-14T15:48:43;15.85;;;8.07;;
77866;SDS011;67271;59.120;37.970;2023-03-14T15:51:09;14.82;;;7.35;;
77866;SDS011;67271;59.120;37.970;2023-03-14T15:53:36;13.32;;;8.15;;
77866;SDS011;67271;59.120;37.970;2023-03-14T15:56:03;13.65;;;9.25;;
77866;SDS011;67271;59.120;37.970;2023-03-14T15:58:30;11.70;;;7.05;;
77866;SDS011;67271;59.120;37.970;2023-03-14T16:00:59;11.65;;;6.63;;
77866;SDS011;67271;59.120;37.970;2023-03-14T16:03:27;16.52;;;9.25;;
77866;SDS011;67271;59.120;37.970;2023-03-14T16:05:54;17.48;;;8.23;;
77866;SDS011;67271;59.120;37.970;2023-03-14T16:08:21;13.00;;;7.22;;
77866;SDS011;67271;59.120;37.970;2023-03-14T16:10:51;14.35;;;7.90;;
77866;SDS011;67271;59.120;37.970;2023-03-14T16:13:17;11.18;;;7.03;;
77866;SDS011;67271;59.120;37.970;2023-03-14T16:15:52;13.38;;;7.50;;
77866;SDS011;67271;59.120;37.970;2023-03-14T16:18:19;11.10;;;6.47;;
77866;SDS011;67271;59.120;37.970;2023-03-14T16:20:50;13.20;;;7.75;;
77866;SDS011;67271;59.120;37.970;2023-03-14T16:25:46;11.00;;;6.70;;
77866;SDS011;67271;59.120;37.970;2023-03-14T16:28:12;12.10;;;6.32;;
77866;SDS011;67271;59.120;37.970;2023-03-14T16:30:38;13.05;;;7.85;;
77866;SDS011;67271;59.120;37.970;2023-03-14T16:33:04;11.77;;;6.82;;
77866;SDS011;67271;59.120;37.970;2023-03-14T16:35:37;11.13;;;6.43;;
77866;SDS011;67271;59.120;37.970;2023-03-14T16:38:03;11.75;;;6.70;;